createdAt,value
2023-01-30T00:01:01.407Z,30.92
2023-01-30T00:03:28.060Z,30.42
2023-01-30T00:05:54.487Z,32.97
2023-01-30T00:08:21.456Z,32.20
2023-01-30T00:10:48.159Z,33.80
2023-01-30T00:13:15.588Z,31.85
2023-01-30T00:15:42.790Z,33.08
2023-01-30T00:18:09.815Z,29.80
2023-01-30T00:20:36.904Z,33.05
2023-01-30T00:23:04.673Z,31.65
2023-01-30T00:25:31.630Z,38.47
2023-01-30T00:28:01.688Z,38.13
2023-01-30T00:30:28.757Z,28.77
2023-01-30T00:32:59.216Z,35.45
2023-01-30T00:35:28.431Z,26.63
2023-01-30T00:37:57.176Z,31.50
2023-01-30T00:40:28.081Z,38.90
2023-01-30T00:43:14.014Z,35.58
2023-01-30T00:46:01.763Z,36.05
2023-01-30T00:48:28.374Z,37.00
2023-01-30T00:50:54.788Z,31.17
2023-01-30T00:53:21.267Z,30.85
2023-01-30T00:55:47.762Z,39.00
2023-01-30T00:58:14.213Z,27.77
2023-01-30T01:00:40.735Z,35.17
2023-01-30T01:03:07.827Z,39.78
2023-01-30T01:05:34.791Z,32.67
2023-01-30T01:08:01.816Z,32.72
2023-01-30T01:10:28.635Z,33.05
2023-01-30T01:12:55.337Z,35.47
2023-01-30T01:15:23.512Z,37.13
2023-01-30T01:17:50.316Z,40.90
2023-01-30T01:20:18.357Z,37.20
2023-01-30T01:22:45.052Z,42.33
2023-01-30T01:25:11.685Z,45.85
2023-01-30T01:27:38.624Z,41.65
2023-01-30T01:30:06.596Z,44.72
2023-01-30T01:32:33.033Z,41.67
2023-01-30T01:34:59.510Z,45.55
2023-01-30T01:37:26.142Z,38.67
2023-01-30T01:40:11.266Z,40.28
2023-01-30T01:42:38.901Z,38.55
2023-01-30T01:45:18.023Z,43.17
2023-01-30T01:48:16.939Z,38.17
2023-01-30T01:50:49.232Z,50.78
2023-01-30T01:53:18.891Z,40.92
2023-01-30T01:55:49.928Z,42.28
2023-01-30T01:58:41.357Z,46.05
2023-01-30T02:01:08.100Z,45.55
2023-01-30T02:03:37.954Z,47.65
2023-01-30T02:06:04.756Z,46.33
2023-01-30T02:08:38.896Z,47.60
2023-01-30T02:11:08.765Z,45.20
2023-01-30T02:13:35.968Z,41.22
2023-01-30T02:16:04.201Z,41.42
2023-01-30T02:18:33.985Z,41.03
2023-01-30T02:21:22.041Z,41.28
2023-01-30T02:24:17.697Z,46.88
2023-01-30T02:26:57.718Z,35.25
2023-01-30T02:30:12.190Z,41.58
2023-01-30T02:32:41.352Z,34.83
2023-01-30T02:35:37.036Z,36.92
2023-01-30T02:38:24.877Z,31.00
2023-01-30T02:40:57.484Z,30.30
2023-01-30T02:43:44.524Z,33.40
2023-01-30T02:46:52.766Z,44.95
2023-01-30T02:49:28.322Z,33.17
2023-01-30T02:51:56.576Z,33.67
2023-01-30T02:54:23.065Z,34.75
2023-01-30T02:56:57.266Z,37.58
2023-01-30T02:59:37.264Z,35.35
2023-01-30T03:02:28.006Z,38.35
2023-01-30T03:05:10.288Z,35.33
2023-01-30T03:07:50.401Z,36.40
2023-01-30T03:10:38.151Z,34.33
2023-01-30T03:13:21.001Z,34.30
2023-01-30T03:15:59.544Z,34.17
2023-01-30T03:18:28.428Z,39.20
2023-01-30T03:20:55.021Z,46.88
2023-01-30T03:23:24.243Z,44.25
2023-01-30T03:25:51.121Z,38.13
2023-01-30T03:28:21.253Z,40.28
2023-01-30T03:30:47.825Z,46.60
2023-01-30T03:33:14.290Z,47.42
2023-01-30T03:35:41.311Z,41.22
2023-01-30T03:38:08.237Z,37.28
2023-01-30T03:40:34.780Z,36.95
2023-01-30T03:43:01.191Z,41.72
2023-01-30T03:45:27.603Z,46.45
2023-01-30T03:47:54.117Z,38.70
2023-01-30T03:50:20.579Z,50.92
2023-01-30T03:52:47.004Z,39.55
2023-01-30T03:55:13.526Z,43.75
2023-01-30T03:57:39.956Z,38.15
2023-01-30T04:00:06.993Z,42.75
2023-01-30T04:02:33.431Z,41.97
2023-01-30T04:04:59.945Z,44.50
2023-01-30T04:07:29.582Z,44.03
2023-01-30T04:09:55.987Z,44.42
2023-01-30T04:12:22.377Z,45.22
2023-01-30T04:14:48.780Z,49.45
2023-01-30T04:17:15.259Z,44.10
2023-01-30T04:19:41.695Z,45.20
2023-01-30T04:22:08.105Z,44.75
2023-01-30T04:24:34.489Z,42.85
2023-01-30T04:27:00.951Z,41.95
2023-01-30T04:29:27.370Z,46.17
2023-01-30T04:31:53.808Z,54.33
2023-01-30T04:34:20.286Z,40.97
2023-01-30T04:36:46.724Z,48.85
2023-01-30T04:39:13.107Z,41.10
2023-01-30T04:41:39.524Z,47.70
2023-01-30T04:44:07.105Z,45.30
2023-01-30T04:46:34.435Z,42.33
2023-01-30T04:49:00.843Z,42.30
2023-01-30T04:51:27.228Z,41.90
2023-01-30T04:53:53.662Z,34.35
2023-01-30T04:56:20.133Z,34.30
2023-01-30T04:58:46.530Z,42.95
2023-01-30T05:01:17.143Z,37.35
2023-01-30T05:03:43.589Z,40.22
2023-01-30T05:06:10.002Z,41.85
2023-01-30T05:08:36.419Z,44.28
2023-01-30T05:11:02.831Z,37.85
2023-01-30T05:13:29.234Z,46.28
2023-01-30T05:15:55.809Z,44.10
2023-01-30T05:18:22.198Z,45.13
2023-01-30T05:20:48.590Z,56.17
2023-01-30T05:23:14.973Z,41.85
2023-01-30T05:25:41.474Z,37.38
2023-01-30T05:28:07.882Z,43.97
2023-01-30T05:30:34.422Z,40.20
2023-01-30T05:33:00.824Z,43.92
2023-01-30T05:35:27.211Z,38.03
2023-01-30T05:37:53.647Z,41.17
2023-01-30T05:40:20.036Z,46.28
2023-01-30T05:42:46.424Z,48.63
2023-01-30T05:45:12.834Z,37.13
2023-01-30T05:47:39.247Z,39.90
2023-01-30T05:50:05.914Z,39.72
2023-01-30T05:52:32.324Z,33.92
2023-01-30T05:54:58.732Z,43.92
2023-01-30T05:57:25.154Z,39.78
2023-01-30T05:59:51.582Z,33.95
2023-01-30T06:02:17.978Z,35.72
2023-01-30T06:04:44.373Z,43.58
2023-01-30T06:07:10.756Z,38.95
2023-01-30T06:09:37.184Z,36.63
2023-01-30T06:12:03.742Z,39.45
2023-01-30T06:14:30.145Z,40.65
2023-01-30T06:16:56.612Z,38.72
2023-01-30T06:19:23.200Z,40.45
2023-01-30T06:21:49.625Z,44.30
2023-01-30T06:24:16.017Z,40.50
2023-01-30T06:26:42.457Z,40.55
2023-01-30T06:29:08.901Z,41.05
2023-01-30T06:31:35.398Z,38.03
2023-01-30T06:34:01.807Z,38.85
2023-01-30T06:36:28.192Z,31.05
2023-01-30T06:38:54.621Z,40.55
2023-01-30T06:41:21.445Z,38.08
2023-01-30T06:43:47.954Z,41.53
2023-01-30T06:46:14.613Z,36.28
2023-01-30T06:48:41.092Z,37.65
2023-01-30T06:51:07.506Z,35.95
2023-01-30T06:53:33.915Z,40.20
2023-01-30T06:56:01.731Z,38.83
2023-01-30T06:58:28.368Z,41.03
2023-01-30T07:00:54.898Z,41.38
2023-01-30T07:03:21.331Z,46.17
2023-01-30T07:05:48.362Z,40.17
2023-01-30T07:08:30.558Z,39.85
2023-01-30T07:10:56.986Z,49.20
2023-01-30T07:13:23.380Z,45.13
2023-01-30T07:15:50.539Z,47.28
2023-01-30T07:18:16.972Z,43.05
2023-01-30T07:20:47.782Z,53.13
2023-01-30T07:23:14.190Z,53.93
2023-01-30T07:25:40.634Z,51.38
2023-01-30T07:28:07.143Z,48.00
2023-01-30T07:30:36.083Z,43.17
2023-01-30T07:33:04.976Z,46.65
2023-01-30T07:35:34.290Z,46.65
2023-01-30T07:38:00.724Z,48.40
2023-01-30T07:40:27.681Z,44.05
2023-01-30T07:43:02.689Z,50.58
2023-01-30T07:45:35.260Z,39.42
2023-01-30T07:48:01.668Z,40.63
2023-01-30T07:50:28.263Z,46.03
2023-01-30T07:52:54.998Z,48.17
2023-01-30T07:55:24.811Z,42.40
2023-01-30T07:57:51.232Z,50.88
2023-01-30T08:00:18.664Z,42.58
2023-01-30T08:02:45.315Z,41.38
2023-01-30T08:05:12.170Z,40.45
2023-01-30T08:07:44.581Z,45.35
2023-01-30T08:10:12.163Z,42.95
2023-01-30T08:12:42.467Z,48.35
2023-01-30T08:15:10.296Z,47.05
2023-01-30T08:17:37.020Z,46.80
2023-01-30T08:20:04.571Z,49.30
2023-01-30T08:22:31.121Z,46.40
2023-01-30T08:24:57.541Z,48.85
2023-01-30T08:27:23.963Z,48.00
2023-01-30T08:29:50.516Z,46.08
2023-01-30T08:32:16.945Z,49.83
2023-01-30T08:34:52.153Z,56.03
2023-01-30T08:37:18.605Z,52.90
2023-01-30T08:39:45.082Z,49.90
2023-01-30T08:42:11.566Z,50.95
2023-01-30T08:44:38.045Z,54.08
2023-01-30T08:47:04.479Z,52.42
2023-01-30T08:49:40.746Z,51.10
2023-01-30T08:52:07.230Z,54.13
2023-01-30T08:54:33.751Z,49.83
2023-01-30T08:57:00.184Z,56.10
2023-01-30T08:59:26.630Z,58.13
2023-01-30T09:01:53.080Z,56.13
2023-01-30T09:04:19.510Z,52.03
2023-01-30T09:06:45.913Z,52.85
2023-01-30T09:09:12.368Z,49.63
2023-01-30T09:11:38.843Z,48.67
2023-01-30T09:14:05.284Z,59.22
2023-01-30T09:16:31.897Z,57.70
2023-01-30T09:18:58.316Z,55.97
2023-01-30T09:21:25.189Z,62.78
2023-01-30T09:23:51.629Z,55.38
2023-01-30T09:26:18.198Z,61.00
2023-01-30T09:28:44.677Z,57.80
2023-01-30T09:31:11.220Z,62.38
2023-01-30T09:33:37.765Z,57.55
2023-01-30T09:36:04.555Z,64.07
2023-01-30T09:38:31.191Z,51.97
2023-01-30T09:41:22.074Z,60.33
2023-01-30T09:44:03.131Z,53.65
2023-01-30T09:47:03.811Z,51.00
2023-01-30T09:49:50.674Z,52.03
2023-01-30T09:52:31.377Z,54.78
2023-01-30T09:55:19.738Z,63.50
2023-01-30T09:57:48.962Z,58.25
2023-01-30T10:00:49.106Z,55.88
2023-01-30T10:03:24.226Z,56.55
2023-01-30T10:05:59.310Z,68.68
2023-01-30T10:08:52.035Z,61.03
2023-01-30T10:11:30.907Z,76.28
2023-01-30T10:14:20.914Z,60.17
2023-01-30T10:16:58.747Z,50.75
2023-01-30T10:19:53.345Z,59.15
2023-01-30T10:22:47.156Z,58.92
2023-01-30T10:25:38.510Z,54.63
2023-01-30T10:28:36.776Z,87.70
2023-01-30T10:31:19.234Z,74.20
2023-01-30T10:34:07.625Z,66.40
2023-01-30T10:36:41.076Z,65.47
2023-01-30T10:39:21.386Z,59.95
2023-01-30T10:42:10.215Z,57.30
2023-01-30T10:44:39.150Z,56.00
2023-01-30T10:47:47.150Z,54.72
2023-01-30T10:50:24.411Z,53.53
2023-01-30T10:53:08.185Z,48.65
2023-01-30T10:55:46.881Z,55.60
2023-01-30T10:58:17.738Z,46.97
2023-01-30T11:00:56.059Z,58.10
2023-01-30T11:03:47.957Z,54.50
2023-01-30T11:08:45.954Z,49.17
2023-01-30T11:11:26.705Z,58.03
2023-01-30T11:14:10.480Z,51.20
2023-01-30T11:16:53.868Z,49.63
2023-01-30T11:19:24.262Z,50.13
2023-01-30T11:21:53.581Z,55.75
2023-01-30T11:24:23.452Z,56.53
2023-01-30T11:27:12.408Z,54.33
2023-01-30T11:29:39.593Z,58.88
2023-01-30T11:32:19.576Z,51.78
2023-01-30T11:35:24.360Z,53.60
2023-01-30T11:37:53.308Z,65.57
2023-01-30T11:40:25.619Z,52.28
2023-01-30T11:43:10.487Z,53.53
2023-01-30T11:45:40.753Z,46.78
2023-01-30T11:48:31.301Z,49.10
2023-01-30T11:51:06.135Z,51.33
2023-01-30T11:53:40.311Z,43.58
2023-01-30T11:56:17.282Z,49.03
2023-01-30T11:58:47.992Z,49.75
2023-01-30T12:01:16.151Z,47.47
2023-01-30T12:03:52.143Z,47.92
2023-01-30T12:06:32.944Z,50.55
2023-01-30T12:09:00.074Z,52.20
2023-01-30T12:11:35.286Z,46.33
2023-01-30T12:14:25.438Z,42.60
2023-01-30T12:17:12.400Z,49.47
2023-01-30T12:20:01.193Z,47.40
2023-01-30T12:22:38.120Z,44.53
2023-01-30T12:25:31.194Z,54.90
2023-01-30T12:28:02.417Z,38.55
2023-01-30T12:30:56.626Z,45.67
2023-01-30T12:33:28.620Z,45.60
2023-01-30T12:36:19.460Z,46.17
2023-01-30T12:39:10.819Z,46.60
2023-01-30T12:41:51.402Z,51.70
2023-01-30T12:44:23.617Z,65.97
2023-01-30T12:47:25.696Z,48.92
2023-01-30T12:50:36.599Z,67.22
2023-01-30T12:53:21.775Z,76.70
2023-01-30T12:56:17.796Z,65.05
2023-01-30T12:58:50.851Z,60.15
2023-01-30T13:01:25.423Z,56.13
2023-01-30T13:04:16.723Z,52.95
2023-01-30T13:07:10.748Z,57.97
2023-01-30T13:09:40.191Z,50.78
2023-01-30T13:12:13.384Z,62.78
2023-01-30T13:14:57.148Z,59.08
2023-01-30T13:17:44.519Z,62.95
2023-01-30T13:20:23.109Z,47.10
2023-01-30T13:23:18.495Z,47.63
2023-01-30T13:26:01.004Z,54.65
2023-01-30T13:28:50.171Z,58.80
2023-01-30T13:31:24.306Z,51.45
2023-01-30T13:34:03.437Z,47.65
2023-01-30T13:36:54.273Z,62.10
2023-01-30T13:39:42.613Z,46.00
2023-01-30T13:42:23.342Z,51.22
2023-01-30T13:44:51.727Z,51.72
2023-01-30T13:47:23.424Z,58.05
2023-01-30T13:50:12.794Z,58.72
2023-01-30T13:52:46.006Z,60.10
2023-01-30T13:55:49.557Z,50.72
2023-01-30T13:58:25.146Z,81.50
2023-01-30T14:00:53.804Z,59.65
2023-01-30T14:03:25.084Z,65.93
2023-01-30T14:05:51.717Z,52.85
2023-01-30T14:08:22.641Z,63.40
2023-01-30T14:10:50.234Z,60.28
2023-01-30T14:13:19.764Z,62.22
2023-01-30T14:16:02.565Z,68.93
2023-01-30T14:18:38.478Z,54.22
2023-01-30T14:21:31.046Z,51.55
2023-01-30T14:24:00.572Z,58.58
2023-01-30T14:26:48.713Z,66.90
2023-01-30T14:29:40.953Z,60.47
2023-01-30T14:32:14.029Z,45.33
2023-01-30T14:34:44.489Z,46.00
2023-01-30T14:37:41.488Z,50.35
2023-01-30T14:40:22.831Z,57.33
2023-01-30T14:43:27.606Z,55.03
2023-01-30T14:46:02.610Z,95.20
2023-01-30T14:48:48.236Z,72.50
2023-01-30T14:51:25.946Z,88.15
2023-01-30T14:53:57.692Z,69.75
2023-01-30T14:57:01.450Z,60.42
2023-01-30T14:59:38.815Z,44.65
2023-01-30T15:02:14.382Z,64.07
2023-01-30T15:04:46.656Z,51.80
2023-01-30T15:07:37.996Z,50.28
2023-01-30T15:10:23.581Z,47.92
2023-01-30T15:13:05.188Z,53.88
2023-01-30T15:15:54.915Z,62.45
2023-01-30T15:18:43.116Z,73.90
2023-01-30T15:21:37.575Z,74.20
2023-01-30T15:24:41.678Z,58.20
2023-01-30T15:27:45.305Z,54.20
2023-01-30T15:30:29.929Z,55.80
2023-01-30T15:33:19.878Z,50.78
2023-01-30T15:35:49.215Z,52.22
2023-01-30T15:38:28.105Z,44.30
2023-01-30T15:40:57.871Z,55.42
2023-01-30T15:43:27.381Z,49.97
2023-01-30T15:46:06.062Z,64.32
2023-01-30T15:48:58.818Z,60.92
2023-01-30T15:51:30.888Z,56.03
2023-01-30T15:53:59.279Z,52.33
2023-01-30T15:56:31.396Z,49.38
2023-01-30T15:59:00.631Z,51.63
2023-01-30T16:01:27.434Z,54.60
2023-01-30T16:03:54.234Z,56.55
2023-01-30T16:06:34.493Z,59.10
2023-01-30T16:09:06.831Z,63.78
2023-01-30T16:11:33.191Z,75.05
2023-01-30T16:14:01.402Z,69.07
2023-01-30T16:16:29.047Z,60.85
2023-01-30T16:18:59.274Z,49.00
2023-01-30T16:21:31.031Z,52.08
2023-01-30T16:24:06.790Z,51.70
2023-01-30T16:26:35.697Z,47.17
2023-01-30T16:29:11.415Z,46.42
2023-01-30T16:31:39.841Z,60.63
2023-01-30T16:34:17.681Z,59.85
2023-01-30T16:36:47.528Z,54.35
2023-01-30T16:39:45.639Z,51.08
2023-01-30T16:42:26.156Z,55.45
2023-01-30T16:45:08.199Z,56.63
2023-01-30T16:47:34.706Z,60.08
2023-01-30T16:50:01.222Z,53.58
2023-01-30T16:52:41.122Z,56.15
2023-01-30T16:55:18.511Z,58.47
2023-01-30T16:57:52.426Z,60.50
2023-01-30T17:00:33.784Z,53.55
2023-01-30T17:03:03.785Z,64.10
2023-01-30T17:05:37.706Z,59.13
2023-01-30T17:08:04.332Z,56.28
2023-01-30T17:10:51.977Z,66.10
2023-01-30T17:13:37.348Z,74.53
2023-01-30T17:16:22.047Z,71.25
2023-01-30T17:18:49.674Z,57.60
2023-01-30T17:21:17.192Z,53.30
2023-01-30T17:23:54.692Z,59.00
2023-01-30T17:26:21.258Z,56.65
2023-01-30T17:28:47.755Z,56.15
2023-01-30T17:31:16.217Z,58.17
2023-01-30T17:33:43.109Z,64.57
2023-01-30T17:36:22.408Z,65.00
2023-01-30T17:38:50.890Z,59.95
2023-01-30T17:41:27.094Z,63.75
2023-01-30T17:43:53.473Z,65.65
2023-01-30T17:46:23.747Z,55.03
2023-01-30T17:48:51.693Z,69.03
2023-01-30T17:51:18.168Z,55.83
2023-01-30T17:53:44.586Z,59.70
2023-01-30T17:56:22.010Z,83.60
2023-01-30T17:58:50.603Z,118.55
2023-01-30T18:01:18.925Z,112.55
2023-01-30T18:03:45.843Z,79.38
2023-01-30T18:06:14.319Z,83.45
2023-01-30T18:08:41.525Z,81.72
2023-01-30T18:11:12.077Z,78.80
2023-01-30T18:13:39.971Z,71.97
2023-01-30T18:16:06.697Z,62.45
2023-01-30T18:18:33.306Z,69.28
2023-01-30T18:20:59.745Z,59.47
2023-01-30T18:23:26.204Z,68.00
2023-01-30T18:25:52.603Z,84.95
2023-01-30T18:28:18.984Z,64.47
2023-01-30T18:30:45.486Z,78.72
2023-01-30T18:33:12.012Z,81.80
2023-01-30T18:35:39.029Z,76.40
2023-01-30T18:38:05.490Z,70.95
2023-01-30T18:40:31.916Z,75.43
2023-01-30T18:42:58.423Z,66.15
2023-01-30T18:45:24.851Z,65.72
2023-01-30T18:47:52.452Z,62.67
2023-01-30T18:50:19.350Z,116.35
2023-01-30T18:52:47.319Z,63.40
2023-01-30T18:55:13.820Z,101.22
2023-01-30T18:57:40.252Z,152.88
2023-01-30T19:00:07.477Z,158.27
2023-01-30T19:02:34.021Z,134.55
2023-01-30T19:05:00.516Z,135.30
2023-01-30T19:07:26.926Z,100.32
2023-01-30T19:09:56.453Z,82.50
2023-01-30T19:12:42.406Z,72.65
2023-01-30T19:15:09.414Z,64.38
2023-01-30T19:17:35.927Z,55.42
2023-01-30T19:20:04.697Z,48.42
2023-01-30T19:22:31.072Z,58.53
2023-01-30T19:24:57.546Z,85.65
2023-01-30T19:27:24.521Z,97.15
2023-01-30T19:29:51.076Z,107.25
2023-01-30T19:32:17.468Z,91.10
2023-01-30T19:34:45.131Z,102.50
2023-01-30T19:37:11.525Z,119.75
2023-01-30T19:39:37.907Z,104.72
2023-01-30T19:42:04.511Z,65.88
2023-01-30T19:44:30.981Z,77.35
2023-01-30T19:46:57.424Z,73.70
2023-01-30T19:49:23.813Z,56.78
2023-01-30T19:51:50.228Z,65.18
2023-01-30T19:54:16.784Z,63.63
2023-01-30T19:56:47.299Z,62.17
2023-01-30T19:59:15.966Z,63.92
2023-01-30T20:01:42.558Z,63.45
2023-01-30T20:04:09.089Z,58.95
2023-01-30T20:06:37.422Z,68.28
2023-01-30T20:09:06.695Z,65.78
2023-01-30T20:11:35.410Z,62.35
2023-01-30T20:14:02.023Z,65.05
2023-01-30T20:16:29.642Z,69.38
2023-01-30T20:18:59.421Z,66.43
2023-01-30T20:21:26.913Z,83.55
2023-01-30T20:23:54.131Z,90.95
2023-01-30T20:26:24.492Z,99.53
2023-01-30T20:28:51.177Z,79.03
2023-01-30T20:31:20.661Z,71.90
2023-01-30T20:33:47.408Z,71.57
2023-01-30T20:36:18.585Z,78.57
2023-01-30T20:38:46.692Z,74.53
2023-01-30T20:41:18.446Z,61.55
2023-01-30T20:43:46.883Z,60.67
2023-01-30T20:46:16.745Z,70.28
2023-01-30T20:48:43.685Z,66.90
2023-01-30T20:51:12.686Z,64.47
2023-01-30T20:53:40.047Z,70.70
2023-01-30T20:56:07.098Z,58.15
2023-01-30T20:58:33.566Z,65.32
2023-01-30T21:01:18.579Z,51.90
2023-01-30T21:03:48.020Z,60.50
2023-01-30T21:06:14.869Z,58.70
2023-01-30T21:09:02.436Z,60.58
2023-01-30T21:11:29.172Z,57.80
2023-01-30T21:13:55.662Z,56.22
2023-01-30T21:16:24.933Z,58.67
2023-01-30T21:18:54.590Z,61.67
2023-01-30T21:21:29.843Z,63.13
2023-01-30T21:23:58.714Z,62.08
2023-01-30T21:26:27.695Z,65.03
2023-01-30T21:28:55.245Z,58.28
2023-01-30T21:31:24.830Z,56.33
2023-01-30T21:33:51.527Z,60.20
2023-01-30T21:36:18.407Z,65.03
2023-01-30T21:39:03.424Z,65.28
2023-01-30T21:41:54.646Z,65.78
2023-01-30T21:44:25.585Z,61.33
2023-01-30T21:46:52.224Z,70.60
2023-01-30T21:49:19.404Z,64.95
2023-01-30T21:51:48.382Z,56.25
2023-01-30T21:54:16.024Z,63.00
2023-01-30T21:56:42.735Z,54.95
2023-01-30T21:59:10.009Z,60.22
2023-01-30T22:01:37.674Z,53.20
2023-01-30T22:04:08.526Z,56.10
2023-01-30T22:06:36.846Z,53.53
2023-01-30T22:09:05.659Z,57.78
2023-01-30T22:11:34.760Z,57.58
2023-01-30T22:14:01.214Z,53.15
2023-01-30T22:16:29.305Z,50.78
2023-01-30T22:18:56.934Z,49.60
2023-01-30T22:21:26.429Z,54.53
2023-01-30T22:23:54.768Z,57.20
2023-01-30T22:26:23.647Z,60.10
2023-01-30T22:28:58.251Z,59.58
2023-01-30T22:31:26.698Z,67.80
2023-01-30T22:33:55.668Z,65.38
2023-01-30T22:36:27.209Z,65.00
2023-01-30T22:38:54.334Z,62.17
2023-01-30T22:41:23.999Z,62.63
2023-01-30T22:43:56.273Z,57.38
2023-01-30T22:46:25.365Z,56.88
2023-01-30T22:48:52.660Z,56.30
2023-01-30T22:51:24.480Z,62.28
2023-01-30T22:53:53.363Z,62.45
2023-01-30T22:56:22.960Z,58.83
2023-01-30T22:58:50.567Z,55.25
2023-01-30T23:01:28.324Z,60.22
2023-01-30T23:03:57.755Z,61.15
2023-01-30T23:06:25.218Z,58.47
2023-01-30T23:08:54.054Z,57.10
2023-01-30T23:11:24.404Z,54.78
2023-01-30T23:13:53.686Z,65.65
2023-01-30T23:16:22.464Z,58.45
2023-01-30T23:18:55.903Z,61.60
2023-01-30T23:21:31.772Z,53.72
2023-01-30T23:24:00.603Z,62.70
2023-01-30T23:26:30.772Z,59.70
2023-01-30T23:28:58.002Z,55.15
2023-01-30T23:31:26.665Z,65.38
2023-01-30T23:33:58.560Z,55.17
2023-01-30T23:36:25.733Z,59.78
2023-01-30T23:38:53.910Z,56.92
2023-01-30T23:41:25.200Z,55.75
2023-01-30T23:43:52.262Z,59.97
2023-01-30T23:46:27.829Z,59.08
2023-01-30T23:48:57.241Z,57.30
2023-01-30T23:51:25.728Z,54.80
2023-01-30T23:53:52.699Z,54.42
2023-01-30T23:56:20.633Z,60.78
2023-01-30T23:58:47.581Z,50.20
